Time;durP1;ratioP1;P1;durP2;ratioP2;P2;SDS_P1;SDS_P2;PMS_P1;PMS_P2;Temp;Humidity;BMP_temperature;BMP_pressure;BME280_temperature;BME280_humidity;BME280_pressure;Samples;Min_cycle;Max_cycle;Signal;HPM_P1;HPM_P2
2024/01/30 00:56:18;;;;;;;18.13;17.33;;;;;;;-141.02;100.00;58794.06;5061404;28;20714;-65
2024/01/30 00:59:23;;;;;;;17.60;16.90;;;;;;;-141.02;100.00;58888.59;5070070;28;20231;-65
2024/01/30 01:02:31;;;;;;;15.90;15.30;;;;;;;-141.02;100.00;58799.88;5069664;28;20201;-65
2024/01/30 01:05:50;;;;;;;17.33;16.63;;;;;;;-141.02;100.00;58877.03;5069891;28;20206;-64
2024/01/30 01:08:52;;;;;;;20.17;19.27;;;;;;;-141.02;100.00;59004.31;5069619;27;20202;-64
2024/01/30 01:15:11;;;;;;;19.10;18.30;;;;;;;-141.02;100.00;59189.50;5069462;28;20247;-64
2024/01/30 01:18:05;;;;;;;20.73;19.83;;;;;;;-141.02;100.00;59536.75;5069502;28;20194;-64
2024/01/30 01:20:45;;;;;;;23.50;22.30;;;;;;;-141.02;100.00;59857.03;5068941;28;20201;-64
2024/01/30 01:23:22;;;;;;;18.03;17.23;;;;;;;-141.02;100.00;60061.56;5069358;28;20198;-64
2024/01/30 01:25:49;;;;;;;18.50;17.70;;;;;;;-141.02;100.00;60208.22;5069377;28;20194;-64
2024/01/30 01:28:17;;;;;;;23.10;22.10;;;;;;;-141.02;100.00;60169.63;5069312;28;20664;-64
2024/01/30 01:30:46;;;;;;;22.10;21.10;;;;;;;-141.02;100.00;60339.44;5069267;28;20724;-65
2024/01/30 01:33:42;;;;;;;23.70;22.50;;;;;;;-141.02;100.00;60524.69;5069309;28;20208;-66
2024/01/30 01:36:32;;;;;;;22.43;21.43;;;;;;;-141.02;100.00;60671.34;5069351;28;20237;-65
2024/01/30 01:38:59;;;;;;;22.33;21.33;;;;;;;-141.02;100.00;60756.28;5069206;28;20191;-64
2024/01/30 02:41:27;;;;;;;27.23;25.83;;;;;;;-141.02;100.00;62207.91;5072430;28;20189;-65
2024/01/30 02:44:20;;;;;;;28.03;26.63;;;;;;;-141.02;100.00;62111.38;5072255;28;20195;-65
2024/01/30 02:47:16;;;;;;;27.77;26.37;;;;;;;-141.02;100.00;61968.50;5071901;28;20198;-67
2024/01/30 02:50:08;;;;;;;29.63;28.13;;;;;;;-141.02;100.00;62088.19;5071771;27;20245;-65
2024/01/30 02:53:03;;;;;;;30.60;29.10;;;;;;;-141.02;100.00;62005.16;5071843;27;20206;-65
2024/01/30 02:55:51;;;;;;;30.23;28.73;;;;;;;-141.02;100.00;62063.09;5071591;28;20226;-65
2024/01/30 02:58:40;;;;;;;30.17;28.67;;;;;;;-141.02;100.00;62088.19;5071963;28;20656;-65
2024/01/30 03:01:32;;;;;;;29.93;28.43;;;;;;;-141.02;100.00;61833.34;5072026;27;20671;-66
2024/01/30 03:04:24;;;;;;;28.70;27.20;;;;;;;-141.02;100.00;61705.94;5071880;28;20202;-65
2024/01/30 03:07:20;;;;;;;27.07;25.67;;;;;;;-141.02;100.00;61721.38;5071860;28;20199;-66
2024/01/30 03:13:08;;;;;;;27.40;26.00;;;;;;;-141.02;100.00;61171.22;5071480;28;20231;-65
2024/01/30 03:16:16;;;;;;;29.10;27.50;;;;;;;-141.02;100.00;61049.63;5072200;28;20290;-65
2024/01/30 03:18:51;;;;;;;26.43;25.03;;;;;;;-141.02;100.00;60902.94;5071364;28;20198;-66
2024/01/30 03:22:01;;;;;;;24.43;23.13;;;;;;;-141.02;100.00;60906.81;5071489;28;20198;-65
2024/01/30 03:24:46;;;;;;;26.83;25.43;;;;;;;-141.02;100.00;60677.16;5071594;28;20195;-65
2024/01/30 03:31:22;;;;;;;27.57;26.07;;;;;;;-141.02;100.00;60455.22;5071338;28;20170;-65
2024/01/30 03:33:50;;;;;;;30.70;29.10;;;;;;;-141.02;100.00;60239.09;5071163;28;20199;-64
2024/01/30 03:36:44;;;;;;;31.73;30.03;;;;;;;-141.02;100.00;60167.69;5070200;28;20238;-65
2024/01/30 03:39:57;;;;;;;33.37;31.57;;;;;;;-141.02;100.00;59984.38;5031244;28;20192;-65
2024/01/30 03:42:46;;;;;;;29.07;27.57;;;;;;;-141.02;100.00;59835.81;5031083;28;20757;-65
2024/01/30 03:45:45;;;;;;;33.47;31.67;;;;;;;-141.02;100.00;59992.09;5031023;28;20196;-64
2024/01/30 03:48:33;;;;;;;29.23;27.63;;;;;;;-141.02;100.00;59938.06;5031110;28;20196;-65
2024/01/30 03:51:37;;;;;;;31.53;29.83;;;;;;;-141.02;100.00;59899.47;5031043;28;20607;-65
2024/01/30 03:54:55;;;;;;;29.40;27.80;;;;;;;-141.02;100.00;59683.38;5031199;28;20199;-65
2024/01/30 03:57:49;;;;;;;31.17;29.57;;;;;;;-141.02;100.00;59602.34;5031148;28;20207;-65
2024/01/30 04:00:49;;;;;;;31.23;29.53;;;;;;;-141.02;100.00;59532.91;5030828;28;20191;-64
2024/01/30 04:03:35;;;;;;;28.77;27.27;;;;;;;-141.02;100.00;59339.97;5030798;28;20196;-65
2024/01/30 04:06:24;;;;;;;28.57;26.97;;;;;;;-141.02;100.00;59093.06;5030634;28;20196;-65
2024/01/30 04:09:20;;;;;;;24.30;23.00;;;;;;;-141.02;100.00;59067.97;5030800;28;20211;-65
2024/01/30 04:12:18;;;;;;;25.60;24.23;;;;;;;-141.02;100.00;59073.78;5030999;28;20226;-65
2024/01/30 04:15:30;;;;;;;25.53;24.17;;;;;;;-141.02;100.00;58983.09;5030511;28;20588;-64
2024/01/30 04:18:26;;;;;;;31.17;29.57;;;;;;;-141.02;100.00;58846.16;5030487;28;20196;-65
2024/01/30 04:21:19;;;;;;;26.93;25.53;;;;;;;-141.02;100.00;58958.03;5030771;28;20202;-65
2024/01/30 04:24:12;;;;;;;28.43;26.93;;;;;;;-141.02;100.00;58873.16;5030460;28;20204;-65
2024/01/30 04:30:12;;;;;;;29.97;28.37;;;;;;;-141.02;100.00;58666.78;5030343;28;20725;-65
2024/01/30 04:32:39;;;;;;;26.43;25.03;;;;;;;-141.02;100.00;58634.00;5030279;28;20231;-64
2024/01/30 04:35:08;;;;;;;29.00;27.40;;;;;;;-141.02;100.00;58738.16;5030216;28;20263;-64
2024/01/30 04:37:35;;;;;;;29.77;28.17;;;;;;;-141.02;100.00;58769.00;5044142;28;20230;-64
2024/01/30 04:40:03;;;;;;;33.03;31.23;;;;;;;-141.02;100.00;58850.00;5070058;28;20202;-64
2024/01/30 04:42:30;;;;;;;32.67;30.97;;;;;;;-141.02;100.00;58695.72;5070221;28;20297;-65
2024/01/30 04:44:56;;;;;;;25.53;24.13;;;;;;;-141.02;100.00;58412.19;5070026;28;20234;-65
2024/01/30 04:47:23;;;;;;;20.67;19.57;;;;;;;-141.02;100.00;58101.69;5069974;28;20285;-65
2024/01/30 04:49:52;;;;;;;23.07;21.77;;;;;;;-141.02;100.00;58013.00;5069813;28;20194;-65
2024/01/30 04:52:20;;;;;;;24.33;22.93;;;;;;;-141.02;100.00;58018.78;5070159;28;20285;-65
2024/01/30 04:54:47;;;;;;;25.17;23.77;;;;;;;-141.02;100.00;57955.13;5070040;28;20205;-64
2024/01/30 04:57:14;;;;;;;30.37;28.67;;;;;;;-141.02;100.00;58147.97;5068865;28;20199;-65
2024/01/30 04:59:41;;;;;;;28.67;27.17;;;;;;;-141.02;100.00;58149.91;5069702;28;20618;-65
2024/01/30 05:02:08;;;;;;;22.20;21.00;;;;;;;-141.02;100.00;57866.44;5069697;28;20190;-64
2024/01/30 05:04:35;;;;;;;24.17;22.87;;;;;;;-141.02;100.00;57667.81;5069688;28;20287;-65
2024/01/30 05:07:02;;;;;;;28.47;26.97;;;;;;;-141.02;100.00;57891.50;5069555;28;20767;-65
2024/01/30 05:09:30;;;;;;;29.37;27.87;;;;;;;-141.02;100.00;57596.47;5069535;28;20602;-65
2024/01/30 05:11:58;;;;;;;28.50;27.00;;;;;;;-141.02;100.00;57565.63;5069516;28;20774;-65
2024/01/30 05:14:25;;;;;;;25.43;24.13;;;;;;;-141.02;100.00;57642.75;5069762;28;20612;-64
2024/01/30 05:16:51;;;;;;;23.00;21.80;;;;;;;-141.02;100.00;57910.78;5069477;28;20328;-64
2024/01/30 05:19:18;;;;;;;22.80;21.60;;;;;;;-141.02;100.00;57835.59;5069724;28;20226;-66
2024/01/30 05:21:45;;;;;;;25.47;24.17;;;;;;;-141.02;100.00;57843.31;5069685;28;20226;-65
2024/01/30 05:24:12;;;;;;;25.83;24.53;;;;;;;-141.02;100.00;58456.56;5069614;28;20191;-64
2024/01/30 05:26:41;;;;;;;24.03;22.77;;;;;;;-141.02;100.00;58394.84;5069397;28;20285;-64
2024/01/30 05:29:08;;;;;;;24.40;23.10;;;;;;;-141.02;100.00;58502.84;5069360;28;20194;-64
2024/01/30 05:31:35;;;;;;;25.83;24.43;;;;;;;-141.02;100.00;58144.13;5069276;28;20198;-64
2024/01/30 05:34:02;;;;;;;22.63;21.33;;;;;;;-141.02;100.00;57766.16;5069245;28;20635;-64
2024/01/30 05:36:29;;;;;;;21.47;20.27;;;;;;;-141.02;100.00;57581.06;5069097;28;20317;-65
2024/01/30 05:38:57;;;;;;;23.30;22.00;;;;;;;-141.02;100.00;57611.91;5069051;28;20325;-66
2024/01/30 05:41:24;;;;;;;23.70;22.43;;;;;;;-141.02;100.00;57858.72;5069399;28;20277;-65
2024/01/30 05:43:52;;;;;;;23.93;22.73;;;;;;;-141.02;100.00;57399.81;5069071;28;20285;-64
2024/01/30 05:46:19;;;;;;;20.87;19.77;;;;;;;-141.02;100.00;57093.28;5069087;28;20281;-65
2024/01/30 05:48:46;;;;;;;21.20;20.10;;;;;;;-141.02;100.00;57330.41;5069293;28;20226;-64
2024/01/30 05:51:13;;;;;;;24.67;23.37;;;;;;;-141.02;100.00;57091.34;5068966;28;20285;-64
2024/01/30 05:53:40;;;;;;;24.77;23.57;;;;;;;-141.02;100.00;57361.25;5068871;28;20230;-65
2024/01/30 05:56:08;;;;;;;25.93;24.53;;;;;;;-141.02;100.00;57727.59;5068849;28;20790;-64
2024/01/30 05:58:37;;;;;;;23.10;21.90;;;;;;;-141.02;100.00;57594.56;5069328;27;20195;-64
2024/01/30 06:01:08;;;;;;;23.17;21.97;;;;;;;-141.02;100.00;57667.81;5069105;28;20198;-64
2024/01/30 06:03:35;;;;;;;23.53;22.30;;;;;;;-141.02;100.00;58005.28;5068846;28;20189;-64
2024/01/30 06:06:02;;;;;;;27.63;26.13;;;;;;;-141.02;100.00;58296.47;5068701;28;20209;-65
2024/01/30 06:08:29;;;;;;;28.03;26.53;;;;;;;-141.02;100.00;58410.25;5071611;28;20285;-64
2024/01/30 06:10:55;;;;;;;27.43;26.03;;;;;;;-141.02;100.00;58691.84;5072634;28;20208;-64
2024/01/30 06:13:21;;;;;;;26.07;24.77;;;;;;;-141.02;100.00;58637.84;5072796;28;20281;-64
2024/01/30 06:15:48;;;;;;;25.93;24.53;;;;;;;-141.02;100.00;58539.47;5072290;28;20320;-64
2024/01/30 06:18:17;;;;;;;23.93;22.63;;;;;;;-141.02;100.00;58402.53;5072605;28;20237;-64
2024/01/30 06:20:44;;;;;;;23.20;21.90;;;;;;;-141.02;100.00;58248.25;5072267;27;20675;-63
2024/01/30 06:23:12;;;;;;;23.53;22.23;;;;;;;-141.02;100.00;58429.56;5072532;28;20278;-63
2024/01/30 06:25:39;;;;;;;25.17;23.77;;;;;;;-141.02;100.00;58682.22;5072596;28;20670;-64
2024/01/30 06:28:07;;;;;;;23.27;21.87;;;;;;;-141.02;100.00;58861.59;5072198;28;20191;-63
2024/01/30 06:30:34;;;;;;;21.80;20.60;;;;;;;-141.02;100.00;59224.25;5072164;28;20659;-64
2024/01/30 06:33:00;;;;;;;24.37;22.97;;;;;;;-141.02;100.00;59559.91;5072418;28;20273;-65
2024/01/30 06:35:29;;;;;;;24.57;23.17;;;;;;;-141.02;100.00;59779.84;5072255;28;20294;-65
2024/01/30 06:37:56;;;;;;;24.70;23.30;;;;;;;-141.02;100.00;60254.53;5071924;28;20286;-65
2024/01/30 06:40:23;;;;;;;24.43;23.03;;;;;;;-141.02;100.00;59893.69;5071971;28;20237;-65
2024/01/30 06:42:50;;;;;;;27.20;25.70;;;;;;;-141.02;100.00;60019.09;5072182;28;20230;-64
2024/01/30 06:45:17;;;;;;;26.33;24.83;;;;;;;-141.02;100.00;60266.09;5071886;28;20241;-64
2024/01/30 06:47:44;;;;;;;25.73;24.23;;;;;;;-141.02;100.00;60775.56;5072118;28;20281;-65
2024/01/30 06:50:11;;;;;;;26.47;24.97;;;;;;;-141.02;100.00;61319.84;5071860;28;20755;-65
2024/01/30 06:52:39;;;;;;;25.50;24.00;;;;;;;-141.02;99.89;61277.41;5071757;28;20636;-65
2024/01/30 06:55:07;;;;;;;26.13;24.63;;;;;;;-141.02;95.87;60976.28;5071767;28;20281;-66
2024/01/30 06:57:34;;;;;;;27.00;25.47;;;;;;;-141.02;93.69;61107.53;5071661;28;20266;-66
2024/01/30 07:00:01;;;;;;;28.17;26.57;;;;;;;-141.02;94.38;62038.00;5071652;28;20566;-66
2024/01/30 07:02:28;;;;;;;30.40;28.70;;;;;;;-141.02;91.16;61902.84;5071589;28;20691;-66
2024/01/30 07:04:55;;;;;;;28.70;27.07;;;;;;;-141.02;92.40;62134.53;5071571;28;20197;-66
2024/01/30 07:07:22;;;;;;;29.20;27.50;;;;;;;-141.02;90.22;62497.53;5071872;28;20281;-67
2024/01/30 07:09:55;;;;;;;25.10;23.60;;;;;;;-141.02;86.77;62319.88;5071589;27;20202;-66
2024/01/30 07:12:22;;;;;;;25.17;23.60;;;;;;;-141.02;90.20;62729.25;5071890;28;20190;-66
2024/01/30 07:14:50;;;;;;;26.43;24.83;;;;;;;-141.02;89.82;62601.78;5071406;28;20646;-66
2024/01/30 07:17:17;;;;;;;25.33;23.73;;;;;;;-141.02;89.27;62292.84;5071271;28;20689;-66
2024/01/30 07:19:44;;;;;;;25.53;23.93;;;;;;;-141.02;91.97;62727.31;5070941;28;20222;-69
2024/01/30 07:22:11;;;;;;;25.53;23.93;;;;;;;-141.02;91.93;63287.38;5071634;28;20239;-66
2024/01/30 07:24:44;;;;;;;26.73;25.03;;;;;;;-141.02;87.73;62543.88;5071598;28;20278;-67
2024/01/30 07:27:13;;;;;;;29.23;27.43;;;;;;;-141.02;87.96;63258.41;5071331;27;20186;-67
2024/01/30 07:29:40;;;;;;;31.03;29.13;;;;;;;-141.02;87.79;62512.97;5071184;28;20206;-67
2024/01/30 07:32:06;;;;;;;29.47;27.57;;;;;;;-141.02;88.14;62883.72;5071178;28;20230;-67
2024/01/30 07:34:33;;;;;;;29.53;27.63;;;;;;;-141.02;88.23;62833.53;5071057;28;20233;-68
2024/01/30 07:37:00;;;;;;;29.97;27.97;;;;;;;-141.02;86.71;62688.69;5070812;28;20238;-68
2024/01/30 07:39:26;;;;;;;30.37;28.47;;;;;;;-141.02;85.22;62574.75;5071334;28;20187;-68
2024/01/30 07:41:53;;;;;;;29.70;27.90;;;;;;;-141.02;89.59;64500.50;5071003;28;20205;-68
2024/01/30 07:44:22;;;;;;;30.37;28.47;;;;;;;-141.02;86.54;64537.19;5071273;28;20230;-68
2024/01/30 07:46:49;;;;;;;31.07;29.07;;;;;;;-141.02;84.54;62970.63;5071254;28;20277;-69
2024/01/30 07:49:16;;;;;;;30.57;28.47;;;;;;;-141.02;83.32;61769.63;5071184;28;20301;-69
2024/01/30 07:51:43;;;;;;;30.33;28.43;;;;;;;-141.02;86.54;61319.84;5070778;28;20693;-69
2024/01/30 07:54:10;;;;;;;29.10;27.20;;;;;;;-141.02;85.82;61551.50;5070817;28;20675;-69
2024/01/30 07:56:37;;;;;;;29.67;27.67;;;;;;;-141.02;85.45;61065.06;5070678;28;20672;-70
2024/01/30 07:59:04;;;;;;;25.27;23.37;;;;;;;-141.02;85.48;61038.06;5071020;28;20274;-70
2024/01/30 08:01:35;;;;;;;26.33;24.43;;;;;;;-141.02;85.05;60524.69;5071064;28;20230;-70
2024/01/30 08:04:02;;;;;;;26.50;24.60;;;;;;;-141.02;86.22;60599.94;5070640;28;20293;-69
2024/01/30 08:06:28;;;;;;;28.17;26.27;;;;;;;-141.02;85.96;60744.69;5070950;28;20230;-69
2024/01/30 08:08:57;;;;;;;26.53;24.73;;;;;;;-141.02;85.33;60684.88;5070505;28;20290;-69
2024/01/30 08:11:26;;;;;;;27.03;25.23;;;;;;;-141.02;85.85;60636.63;5070554;28;20199;-68
2024/01/30 08:13:53;;;;;;;28.27;26.47;;;;;;;-141.02;85.26;60657.84;5070820;28;20368;-68
2024/01/30 08:16:20;;;;;;;30.57;28.67;;;;;;;-141.02;86.61;61045.78;5070697;28;20233;-68
2024/01/30 08:18:48;;;;;;;30.57;28.57;;;;;;;-141.02;85.80;60887.50;5070718;28;20261;-68
2024/01/30 08:21:15;;;;;;;29.20;27.30;;;;;;;-141.02;83.92;61507.09;5070364;28;20702;-68
2024/01/30 08:23:43;;;;;;;30.60;28.60;;;;;;;-141.02;82.01;61524.47;5070371;28;20646;-68
2024/01/30 08:26:10;;;;;;;30.03;28.03;;;;;;;-141.02;80.92;61721.38;5070277;28;20241;-68
2024/01/30 08:28:37;;;;;;;30.23;28.23;;;;;;;-141.02;83.24;62833.53;5070303;27;20281;-69
2024/01/30 08:31:05;;;;;;;29.83;27.83;;;;;;;-141.02;80.72;63150.25;5069256;28;20198;-69
2024/01/30 08:33:34;;;;;;;30.30;28.30;;;;;;;-141.02;80.68;62733.09;5070116;28;20230;-70
2024/01/30 08:36:03;;;;;;;29.70;27.80;;;;;;;-141.02;81.58;61605.56;5070058;28;20281;-69
2024/01/30 08:38:30;;;;;;;28.23;26.43;;;;;;;-141.02;82.84;61771.56;5069870;28;20226;-69
2024/01/30 08:40:57;;;;;;;28.00;26.20;;;;;;;-141.02;84.35;62582.50;5070080;28;20774;-69
2024/01/30 08:43:24;;;;;;;29.07;27.17;;;;;;;-141.02;81.06;62022.56;5070308;28;20202;-69
2024/01/30 08:45:51;;;;;;;28.43;26.53;;;;;;;-141.02;80.91;61489.72;5070269;28;20288;-70
2024/01/30 08:48:18;;;;;;;25.60;23.80;;;;;;;-141.02;81.24;61207.91;5069963;28;20290;-69
2024/01/30 08:50:45;;;;;;;24.93;23.13;;;;;;;-141.02;83.47;61694.34;5069854;28;20210;-70
2024/01/30 08:53:13;;;;;;;26.73;24.83;;;;;;;-141.02;83.93;62215.63;5069903;28;20715;-70
2024/01/30 08:55:41;;;;;;;28.57;26.57;;;;;;;-141.02;79.90;63080.72;5070036;28;20278;-69
2024/01/30 08:58:08;;;;;;;27.53;25.53;;;;;;;-141.02;77.71;62713.78;5069771;28;20233;-70
2024/01/30 09:00:35;;;;;;;26.50;24.60;;;;;;;-141.02;82.40;62773.66;5069741;28;20191;-70
2024/01/30 09:03:02;;;;;;;31.50;29.40;;;;;;;-141.02;82.97;63285.44;5070000;28;20199;-69
2024/01/30 09:05:29;;;;;;;30.60;28.60;;;;;;;-141.02;80.92;63984.66;5069644;28;20226;-70
2024/01/30 09:07:56;;;;;;;30.70;28.60;;;;;;;-141.02;77.06;64181.72;5069635;28;20714;-69
2024/01/30 09:10:25;;;;;;;30.77;28.77;;;;;;;-141.02;79.95;64007.84;5069894;28;20298;-70
2024/01/30 09:12:52;;;;;;;30.80;28.80;;;;;;;-141.02;80.79;63963.41;5069552;28;20237;-70
2024/01/30 09:15:20;;;;;;;29.17;27.17;;;;;;;-141.02;80.81;63140.59;5069547;28;20197;-70
2024/01/30 09:17:47;;;;;;;30.40;28.30;;;;;;;-141.02;80.98;64166.25;5069400;28;20714;-67
2024/01/30 09:20:13;;;;;;;30.43;28.33;;;;;;;-141.02;79.67;64711.09;5069423;28;20285;-67
2024/01/30 09:22:40;;;;;;;28.73;26.70;;;;;;;-141.02;77.32;64328.53;5069446;28;20198;-67
2024/01/30 09:25:08;;;;;;;28.00;25.90;;;;;;;-141.02;78.18;63706.50;5069308;28;20190;-68
2024/01/30 09:27:36;;;;;;;26.73;24.63;;;;;;;-141.02;75.27;65445.41;5069348;27;20210;-71
2024/01/30 09:30:04;;;;;;;26.90;24.87;;;;;;;-141.02;77.29;64881.13;5069657;28;20289;-69
2024/01/30 09:32:31;;;;;;;24.63;22.63;;;;;;;-141.02;78.69;63262.25;5069604;28;20210;-73
2024/01/30 09:34:58;;;;;;;24.30;22.30;;;;;;;-141.02;80.31;62821.94;5069270;28;20290;-74
2024/01/30 09:37:25;;;;;;;29.30;27.20;;;;;;;-141.02;81.32;64038.75;5069166;28;20300;-71
2024/01/30 09:39:51;;;;;;;28.30;26.13;;;;;;;-141.02;79.27;64714.97;5069545;28;20286;-73
2024/01/30 09:42:27;;;;;;;33.70;31.30;;;;;;;-141.02;77.05;66655.44;5068988;28;20201;-73
2024/01/30 09:44:57;;;;;;;31.20;28.90;;;;;;;-141.02;73.02;67111.72;5069507;27;20277;-72
2024/01/30 09:47:24;;;;;;;28.10;26.00;;;;;;;-141.02;73.97;65232.81;5069397;27;20278;-74
2024/01/30 09:49:52;;;;;;;29.17;26.97;;;;;;;-141.02;76.05;66456.31;5069000;28;20711;-75
2024/01/30 09:52:19;;;;;;;31.20;28.90;;;;;;;-141.02;70.66;65167.13;5069303;27;20234;-73
2024/01/30 09:54:46;;;;;;;30.80;28.50;;;;;;;-141.02;72.26;64718.81;5068862;28;20198;-74
2024/01/30 09:57:13;;;;;;;28.80;26.60;;;;;;;-141.02;71.90;63501.75;5069151;28;20281;-74
2024/01/30 09:59:40;;;;;;;27.87;25.67;;;;;;;-141.02;71.31;63430.28;5068895;28;20281;-74
2024/01/30 10:02:09;;;;;;;29.47;27.17;;;;;;;-141.02;71.82;64865.69;5069196;28;20600;-74
2024/01/30 10:04:37;;;;;;;32.00;29.60;;;;;;;-141.02;71.61;64313.09;5068842;28;20294;-74
2024/01/30 10:07:04;;;;;;;33.33;30.83;;;;;;;-141.02;73.04;65799.09;5069037;28;20281;-74
2024/01/30 10:09:33;;;;;;;32.60;30.20;;;;;;;-141.02;69.59;66199.22;5069068;28;20285;-73
2024/01/30 10:12:00;;;;;;;25.13;23.03;;;;;;;-141.02;70.90;64799.97;5068751;27;20198;-74
2024/01/30 10:14:27;;;;;;;24.80;22.80;;;;;;;-141.02;70.10;66131.56;5069050;28;20195;-74
2024/01/30 10:16:54;;;;;;;24.90;22.80;;;;;;;-141.02;68.54;67040.19;5068899;28;20229;-74
2024/01/30 10:19:22;;;;;;;25.27;23.17;;;;;;;-141.02;69.69;66245.59;5068657;27;20289;-75
2024/01/30 10:21:49;;;;;;;25.33;23.23;;;;;;;-141.02;69.59;64320.81;5068931;28;20195;-74
2024/01/30 10:24:17;;;;;;;25.80;23.60;;;;;;;-141.02;68.99;64421.28;5068802;28;20285;-75
2024/01/30 10:26:44;;;;;;;25.90;23.70;;;;;;;-141.02;69.14;65364.25;5068617;28;20660;-76
2024/01/30 10:30:04;;;;;;;25.50;23.30;;;;;;;-141.02;68.91;65078.22;5068897;28;20635;-76
2024/01/30 10:32:31;;;;;;;24.30;22.20;;;;;;;-141.02;69.95;65880.28;5069285;28;20687;-78
2024/01/30 10:34:59;;;;;;;28.40;26.10;;;;;;;-141.02;67.84;66390.59;5075018;28;20250;-76
2024/01/30 10:37:27;;;;;;;27.63;25.33;;;;;;;-141.02;68.26;65468.59;5070649;28;20329;-78
2024/01/30 10:39:55;;;;;;;26.00;23.63;;;;;;;-141.02;68.56;65228.97;5074416;28;20607;-78
2024/01/30 10:42:28;;;;;;;24.40;22.20;;;;;;;-141.02;68.57;65016.41;5069694;28;20563;-79
2024/01/30 10:45:01;;;;;;;27.60;25.30;;;;;;;-141.02;69.18;66324.84;5068735;28;20195;-80
2024/01/30 10:47:29;;;;;;;29.37;26.97;;;;;;;-141.02;69.22;65984.66;5068368;27;20281;-81
2024/01/30 10:49:56;;;;;;;24.40;22.23;;;;;;;-141.02;69.67;66404.13;5068276;27;20735;-78
2024/01/30 10:52:27;;;;;;;29.80;27.40;;;;;;;-141.02;70.30;66164.41;5068231;27;20281;-81
2024/01/30 10:54:55;;;;;;;27.57;25.17;;;;;;;-141.02;69.25;66665.09;5070474;27;20255;-81
2024/01/30 10:57:24;;;;;;;28.40;26.00;;;;;;;-141.02;69.67;68450.00;5071960;27;20309;-78
2024/01/30 10:59:53;;;;;;;26.50;24.10;;;;;;;-141.02;67.16;69022.59;5072012;27;20273;-80
2024/01/30 11:02:21;;;;;;;30.87;28.37;;;;;;;-141.02;67.10;70187.44;5071782;27;20194;-78
2024/01/30 11:04:48;;;;;;;29.10;26.60;;;;;;;-141.02;67.43;66889.38;5071543;28;20664;-81
2024/01/30 11:07:16;;;;;;;29.90;27.30;;;;;;;-141.02;66.76;67368.91;5071584;28;20190;-83
2024/01/30 11:09:51;;;;;;;30.10;27.50;;;;;;;-141.02;66.86;66616.75;5071512;28;20210;-84
2024/01/30 11:12:23;;;;;;;29.97;27.37;;;;;;;-141.02;67.12;66856.50;5071519;28;20182;-82
2024/01/30 11:15:07;;;;;;;25.57;23.27;;;;;;;-141.02;66.10;67088.50;5072430;27;20197;-80
2024/01/30 11:17:45;;;;;;;25.17;22.87;;;;;;;-141.02;66.48;68306.88;5071844;28;20230;-83
2024/01/30 11:20:14;;;;;;;25.20;22.90;;;;;;;-141.02;66.30;67552.59;5071725;28;20273;-71
2024/01/30 11:22:44;;;;;;;24.97;22.60;;;;;;;-141.02;66.16;66518.16;5071767;27;20225;-82
2024/01/30 11:25:17;;;;;;;25.67;23.37;;;;;;;-141.02;67.66;68113.44;5071624;28;20643;-80
2024/01/30 11:27:43;;;;;;;26.23;23.73;;;;;;;-141.02;64.76;68581.53;5071606;27;20226;-82
2024/01/30 11:30:10;;;;;;;26.60;24.10;;;;;;;-141.02;67.55;66143.16;5071495;28;20198;-79
2024/01/30 11:32:38;;;;;;;24.10;21.80;;;;;;;-141.02;69.21;65364.25;5071541;28;20195;-78
2024/01/30 11:35:06;;;;;;;24.30;21.90;;;;;;;-141.02;67.90;66206.94;5071176;28;20695;-82
2024/01/30 11:37:39;;;;;;;24.57;22.17;;;;;;;-141.02;68.25;64997.06;5071083;28;20242;-77
2024/01/30 11:40:07;;;;;;;24.70;22.30;;;;;;;-141.02;67.85;65453.13;5071139;27;20667;-80
2024/01/30 11:42:39;;;;;;;24.40;22.00;;;;;;;-141.02;67.67;64508.22;5071005;28;20644;-79
2024/01/30 11:45:07;;;;;;;23.70;21.40;;;;;;;-141.02;70.12;63138.66;5071082;27;20590;-77
2024/01/30 11:47:36;;;;;;;24.47;22.17;;;;;;;-141.02;70.92;63953.75;5071304;28;20255;-79
2024/01/30 11:50:06;;;;;;;25.60;23.20;;;;;;;-141.02;69.55;63204.31;5071210;28;20282;-76
2024/01/30 11:52:34;;;;;;;26.30;23.90;;;;;;;-141.02;68.57;64177.84;5070799;28;20206;-76
2024/01/30 11:55:01;;;;;;;24.97;22.67;;;;;;;-141.02;67.39;64745.88;5070838;28;20231;-76
2024/01/30 11:57:28;;;;;;;25.23;22.90;;;;;;;-141.02;67.76;65012.53;5070785;28;20317;-75
2024/01/30 11:59:57;;;;;;;25.63;23.23;;;;;;;-141.02;68.89;68894.91;5070857;27;20677;-72
2024/01/30 12:02:24;;;;;;;25.97;23.50;;;;;;;-141.02;64.86;67150.38;5071036;28;20191;-79
2024/01/30 12:05:20;;;;;;;26.13;23.73;;;;;;;-141.02;66.21;66649.63;5070351;28;20285;-75
2024/01/30 12:07:48;;;;;;;28.70;26.10;;;;;;;-141.02;66.97;64058.06;5070933;27;20255;-75
2024/01/30 12:10:15;;;;;;;28.47;25.87;;;;;;;-141.02;66.97;63569.38;5070595;28;20241;-75
2024/01/30 12:12:44;;;;;;;25.10;22.70;;;;;;;-141.02;67.00;64231.94;5070589;28;20198;-73
2024/01/30 12:15:13;;;;;;;24.60;22.30;;;;;;;-141.02;68.47;64347.88;5070497;27;20695;-75
2024/01/30 12:17:40;;;;;;;27.50;25.10;;;;;;;-141.02;67.78;64328.53;5070376;28;20261;-77
2024/01/30 12:20:09;;;;;;;33.47;30.67;;;;;;;-141.02;66.68;65549.78;5070697;28;20198;-72
2024/01/30 12:23:07;;;;;;;24.83;22.43;;;;;;;-141.02;65.97;68419.06;5070391;28;20740;-70
2024/01/30 12:25:34;;;;;;;28.90;26.30;;;;;;;-141.02;67.29;68666.66;5070585;28;20206;-72
2024/01/30 12:28:01;;;;;;;29.13;26.63;;;;;;;-141.02;67.96;68279.78;5070646;28;20201;-73
2024/01/30 12:30:29;;;;;;;25.37;22.97;;;;;;;-141.02;65.41;66655.44;5070539;28;20225;-75
2024/01/30 12:32:56;;;;;;;25.00;22.60;;;;;;;-141.02;65.32;67332.16;5070560;28;20277;-73
2024/01/30 12:35:24;;;;;;;29.40;26.80;;;;;;;-141.02;66.76;68600.88;5070149;28;20694;-73
2024/01/30 12:37:51;;;;;;;28.10;25.60;;;;;;;-141.02;67.41;66871.97;5069861;28;20234;-73
2024/01/30 12:40:18;;;;;;;25.30;22.90;;;;;;;-141.02;67.01;66781.09;5070052;28;20281;-70
2024/01/30 12:42:49;;;;;;;25.67;23.27;;;;;;;-141.02;66.96;68090.25;5070423;28;20294;-70
2024/01/30 12:45:20;;;;;;;33.00;30.20;;;;;;;-141.02;67.99;69997.78;5070127;27;20593;-71
2024/01/30 12:51:10;;;;;;;24.60;22.20;;;;;;;-141.02;67.04;65808.75;5070416;28;20235;-72
2024/01/30 12:53:37;;;;;;;24.50;22.10;;;;;;;-141.02;66.54;65770.09;5070152;28;20230;-71
2024/01/30 12:56:04;;;;;;;28.67;26.07;;;;;;;-141.02;67.43;66783.03;5069907;28;20608;-73
2024/01/30 12:58:31;;;;;;;29.37;26.87;;;;;;;-141.02;65.36;65236.69;5069991;28;20230;-75
2024/01/30 13:00:59;;;;;;;27.80;25.43;;;;;;;-141.02;65.76;66000.13;5069840;27;20195;-72
2024/01/30 13:03:26;;;;;;;27.13;24.77;;;;;;;-141.02;65.13;65331.38;5070115;28;20198;-74
2024/01/30 13:09:15;;;;;;;24.97;22.77;;;;;;;-141.02;66.09;65851.28;5069788;28;20713;-73
2024/01/30 13:11:42;;;;;;;26.73;24.33;;;;;;;-141.02;65.48;65240.56;5069893;28;20285;-73
2024/01/30 13:14:09;;;;;;;26.03;23.63;;;;;;;-141.02;65.15;65294.66;5069906;28;20637;-74
2024/01/30 13:16:36;;;;;;;26.00;23.60;;;;;;;-141.02;65.26;64599.03;5069113;28;20635;-74
2024/01/30 13:19:03;;;;;;;26.47;23.97;;;;;;;-141.02;65.53;64622.22;5069401;28;20722;-73
2024/01/30 13:21:30;;;;;;;25.10;22.77;;;;;;;-141.02;65.09;64660.84;5069839;28;20226;-74
2024/01/30 13:23:57;;;;;;;24.20;22.00;;;;;;;-141.02;65.90;64436.75;5069481;28;20233;-74
2024/01/30 13:26:25;;;;;;;24.80;22.50;;;;;;;-141.02;65.41;64471.50;5069405;28;20289;-74
2024/01/30 13:28:52;;;;;;;29.70;27.20;;;;;;;-141.02;65.52;64977.75;5069363;28;20198;-74
2024/01/30 13:31:20;;;;;;;24.17;21.97;;;;;;;-141.02;65.58;63434.16;5069277;28;20644;-75
2024/01/30 13:33:48;;;;;;;25.00;22.60;;;;;;;-141.02;66.10;63076.84;5069268;28;20233;-72
2024/01/30 13:36:16;;;;;;;24.10;21.90;;;;;;;-141.02;67.23;64255.13;5069449;28;20195;-74
2024/01/30 13:38:43;;;;;;;24.20;22.00;;;;;;;-141.02;66.68;63333.72;5069006;27;20238;-74